EZY46HL EGKK-LEPA
Flight info
| Callsign | EZY46HL |
|---|---|
| Flight time | N/A |
| Altitude | 33000 |
| Route | SFD Y47 DRAKE L151 SITET UN859 SOPIL DCT BALAN DCT EVPOK DCT NARAK DCT GAI DCT LOMRA DCT ROCAN DCT IBRAP DCT LUKEV DCT LORES |
| Aircraft | A319/M-SDE3FGHIRWY/LB1 |
Departure
| Time | N/A |
|---|---|
| Airport | London Gatwick Airport (EGKK) |
Arrival
| Time | 2026-05-07 13:33 |
|---|---|
| Airport | Palma de Mallorca Airport (LEPA) |
| Time | Latitude | Longitude | Altitude | Speed | Heading |
|---|---|---|---|---|---|
| 2026-05-07 13:08 | 41.19090 | 2.46794 | 33008 ft | 367 kts | 174° |
| 2026-05-07 13:08 | 41.16624 | 2.47639 | 33004 ft | 366 kts | 174° |
| 2026-05-07 13:08 | 41.11690 | 2.49331 | 32997 ft | 366 kts | 174° |
| 2026-05-07 13:09 | 41.06770 | 2.51023 | 33000 ft | 365 kts | 175° |
| 2026-05-07 13:09 | 41.01861 | 2.52695 | 32992 ft | 364 kts | 175° |
| 2026-05-07 13:10 | 40.96952 | 2.54364 | 32988 ft | 364 kts | 175° |
| 2026-05-07 13:10 | 40.92046 | 2.56034 | 32982 ft | 364 kts | 175° |
| 2026-05-07 13:11 | 40.87142 | 2.57704 | 32979 ft | 364 kts | 175° |
| 2026-05-07 13:11 | 40.82240 | 2.59374 | 32973 ft | 364 kts | 174° |
| 2026-05-07 13:12 | 40.77338 | 2.61032 | 32970 ft | 363 kts | 174° |
| 2026-05-07 13:12 | 40.72438 | 2.62690 | 32967 ft | 363 kts | 174° |
| 2026-05-07 13:13 | 40.67543 | 2.64354 | 32966 ft | 363 kts | 174° |
| 2026-05-07 13:13 | 40.62609 | 2.66022 | 32986 ft | 374 kts | 174° |
| 2026-05-07 13:14 | 40.60048 | 2.66870 | 32691 ft | 382 kts | 174° |
| 2026-05-07 13:14 | 40.57470 | 2.67727 | 31968 ft | 384 kts | 174° |
| 2026-05-07 13:14 | 40.54885 | 2.68592 | 31327 ft | 383 kts | 173° |
| 2026-05-07 13:14 | 40.52307 | 2.69462 | 30743 ft | 382 kts | 173° |
| 2026-05-07 13:15 | 40.49766 | 2.70501 | 30241 ft | 386 kts | 165° |
| 2026-05-07 13:15 | 40.47398 | 2.72122 | 29701 ft | 389 kts | 160° |
| 2026-05-07 13:15 | 40.45018 | 2.73862 | 29215 ft | 384 kts | 159° |
| 2026-05-07 13:15 | 40.42693 | 2.75561 | 28727 ft | 380 kts | 159° |
| 2026-05-07 13:16 | 40.40394 | 2.77237 | 28265 ft | 376 kts | 159° |
| 2026-05-07 13:16 | 40.38151 | 2.78867 | 27804 ft | 373 kts | 159° |
| 2026-05-07 13:16 | 40.35886 | 2.80503 | 27335 ft | 371 kts | 159° |
| 2026-05-07 13:16 | 40.33630 | 2.82134 | 26851 ft | 369 kts | 159° |
| 2026-05-07 13:17 | 40.31378 | 2.83756 | 26355 ft | 369 kts | 159° |
| 2026-05-07 13:17 | 40.29130 | 2.85373 | 25855 ft | 368 kts | 158° |
| 2026-05-07 13:17 | 40.26882 | 2.86985 | 25339 ft | 369 kts | 158° |
| 2026-05-07 13:17 | 40.24632 | 2.88602 | 24820 ft | 369 kts | 158° |
| 2026-05-07 13:18 | 40.22385 | 2.90221 | 24286 ft | 370 kts | 158° |
| 2026-05-07 13:18 | 40.20124 | 2.91847 | 23691 ft | 372 kts | 158° |
| 2026-05-07 13:18 | 40.17728 | 2.92996 | 23079 ft | 362 kts | 175° |
| 2026-05-07 13:18 | 40.15262 | 2.93134 | 22551 ft | 351 kts | 191° |
| 2026-05-07 13:19 | 40.12939 | 2.92324 | 22041 ft | 343 kts | 207° |
| 2026-05-07 13:19 | 40.10911 | 2.90729 | 21522 ft | 340 kts | 217° |
| 2026-05-07 13:19 | 40.08981 | 2.88943 | 20994 ft | 339 kts | 216° |
| 2026-05-07 13:19 | 40.07057 | 2.87163 | 20467 ft | 339 kts | 216° |
| 2026-05-07 13:20 | 40.05134 | 2.85389 | 19968 ft | 338 kts | 216° |
| 2026-05-07 13:20 | 40.03215 | 2.83621 | 19485 ft | 337 kts | 215° |
| 2026-05-07 13:20 | 40.01302 | 2.81861 | 19014 ft | 336 kts | 215° |
| 2026-05-07 13:20 | 39.99389 | 2.80102 | 18545 ft | 336 kts | 214° |
| 2026-05-07 13:21 | 39.97841 | 2.78679 | 18163 ft | 335 kts | 214° |
| 2026-05-07 13:21 | 39.95938 | 2.76935 | 17666 ft | 334 kts | 214° |
| 2026-05-07 13:21 | 39.94046 | 2.75202 | 17143 ft | 331 kts | 214° |
| 2026-05-07 13:21 | 39.92167 | 2.73480 | 16640 ft | 329 kts | 214° |
| 2026-05-07 13:22 | 39.90302 | 2.71771 | 16152 ft | 327 kts | 214° |
| 2026-05-07 13:22 | 39.88449 | 2.70074 | 15684 ft | 324 kts | 214° |
| 2026-05-07 13:22 | 39.86608 | 2.68386 | 15210 ft | 323 kts | 214° |
| 2026-05-07 13:22 | 39.84778 | 2.66712 | 14747 ft | 321 kts | 214° |
| 2026-05-07 13:23 | 39.82957 | 2.65048 | 14285 ft | 319 kts | 214° |
| 2026-05-07 13:23 | 39.81152 | 2.63401 | 13846 ft | 317 kts | 214° |
| 2026-05-07 13:23 | 39.79365 | 2.61770 | 13350 ft | 316 kts | 213° |
| 2026-05-07 13:23 | 39.77574 | 2.60134 | 12836 ft | 314 kts | 213° |
| 2026-05-07 13:24 | 39.75787 | 2.58505 | 12336 ft | 313 kts | 213° |
| 2026-05-07 13:24 | 39.74005 | 2.56886 | 11833 ft | 312 kts | 213° |
| 2026-05-07 13:24 | 39.72229 | 2.55272 | 11332 ft | 311 kts | 213° |
| 2026-05-07 13:24 | 39.70437 | 2.53646 | 10579 ft | 318 kts | 213° |
| 2026-05-07 13:25 | 39.68626 | 2.52001 | 10109 ft | 317 kts | 213° |
| 2026-05-07 13:25 | 39.66854 | 2.50385 | 9937 ft | 304 kts | 213° |
| 2026-05-07 13:25 | 39.65178 | 2.48853 | 9939 ft | 286 kts | 213° |
| 2026-05-07 13:25 | 39.63593 | 2.47406 | 9694 ft | 277 kts | 213° |
| 2026-05-07 13:26 | 39.61975 | 2.45940 | 8906 ft | 290 kts | 213° |
| 2026-05-07 13:26 | 39.60295 | 2.44423 | 8203 ft | 298 kts | 213° |
| 2026-05-07 13:26 | 39.58616 | 2.42907 | 7769 ft | 290 kts | 213° |
| 2026-05-07 13:26 | 39.56972 | 2.41452 | 7368 ft | 282 kts | 208° |
| 2026-05-07 13:27 | 39.55154 | 2.40725 | 6979 ft | 271 kts | 179° |
| 2026-05-07 13:27 | 39.53364 | 2.41183 | 6612 ft | 259 kts | 152° |
| 2026-05-07 13:27 | 39.51874 | 2.42444 | 6179 ft | 254 kts | 142° |
| 2026-05-07 13:27 | 39.50450 | 2.43780 | 5745 ft | 251 kts | 142° |
| 2026-05-07 13:28 | 39.49051 | 2.45096 | 5339 ft | 245 kts | 142° |
| 2026-05-07 13:28 | 39.47696 | 2.46368 | 4960 ft | 237 kts | 142° |
| 2026-05-07 13:28 | 39.46393 | 2.47622 | 4588 ft | 230 kts | 136° |
| 2026-05-07 13:28 | 39.45551 | 2.49283 | 4257 ft | 218 kts | 105° |
| 2026-05-07 13:29 | 39.45488 | 2.51179 | 3942 ft | 209 kts | 78° |
| 2026-05-07 13:29 | 39.46068 | 2.52911 | 3420 ft | 214 kts | 60° |
| 2026-05-07 13:29 | 39.46856 | 2.54543 | 3000 ft | 212 kts | 59° |
| 2026-05-07 13:29 | 39.47621 | 2.56134 | 2697 ft | 204 kts | 59° |
| 2026-05-07 13:30 | 39.48339 | 2.57639 | 2420 ft | 188 kts | 60° |
| 2026-05-07 13:30 | 39.48998 | 2.59024 | 2180 ft | 174 kts | 60° |
| 2026-05-07 13:30 | 39.49610 | 2.60310 | 1968 ft | 164 kts | 60° |
| 2026-05-07 13:30 | 39.50196 | 2.61544 | 1739 ft | 157 kts | 60° |
| 2026-05-07 13:31 | 39.50760 | 2.62732 | 1532 ft | 154 kts | 59° |
| 2026-05-07 13:31 | 39.51317 | 2.63906 | 1325 ft | 152 kts | 60° |
| 2026-05-07 13:31 | 39.51862 | 2.65054 | 1114 ft | 146 kts | 59° |
| 2026-05-07 13:31 | 39.52380 | 2.66146 | 933 ft | 140 kts | 60° |
| 2026-05-07 13:32 | 39.52883 | 2.67207 | 750 ft | 138 kts | 60° |
| 2026-05-07 13:32 | 39.53381 | 2.68260 | 559 ft | 136 kts | 60° |
| 2026-05-07 13:32 | 39.53880 | 2.69295 | 405 ft | 137 kts | 59° |
| 2026-05-07 13:32 | 39.54379 | 2.70348 | 210 ft | 136 kts | 60° |
| 2026-05-07 13:33 | 39.54866 | 2.71388 | 48 ft | 133 kts | 59° |
| 2026-05-07 13:33 | 39.55289 | 2.72282 | 38 ft | 94 kts | 58° |
| 2026-05-07 13:33 | 39.55554 | 2.72841 | 37 ft | 58 kts | 58° |
| 2026-05-07 13:33 | 39.55708 | 2.73182 | 38 ft | 31 kts | 71° |
| 2026-05-07 13:34 | 39.55719 | 2.73415 | 38 ft | 18 kts | 88° |
| 2026-05-07 13:34 | 39.55644 | 2.73481 | 38 ft | 11 kts | 240° |
| 2026-05-07 13:34 | 39.55598 | 2.73379 | 38 ft | 14 kts | 239° |
| 2026-05-07 13:35 | 39.55545 | 2.73269 | 37 ft | 15 kts | 238° |
| 2026-05-07 13:35 | 39.55490 | 2.73153 | 38 ft | 15 kts | 238° |
| 2026-05-07 13:35 | 39.55436 | 2.73039 | 38 ft | 12 kts | 239° |
| 2026-05-07 13:35 | 39.55378 | 2.72976 | 38 ft | 11 kts | 184° |
| 2026-05-07 13:36 | 39.55310 | 2.73022 | 37 ft | 11 kts | 148° |
| 2026-05-07 13:36 | 39.55241 | 2.73020 | 37 ft | 11 kts | 227° |
| 2026-05-07 13:36 | 39.55199 | 2.72930 | 38 ft | 12 kts | 239° |
| 2026-05-07 13:36 | 39.55160 | 2.72852 | 36 ft | 9 kts | 228° |
| 2026-05-07 13:37 | 39.55114 | 2.72834 | 38 ft | 5 kts | 181° |
| 2026-05-07 13:37 | 39.55095 | 2.72834 | 38 ft | 1 kts | 181° |
| 2026-05-07 13:37 | 39.55085 | 2.72833 | 38 ft | 1 kts | 181° |
| 2026-05-07 13:37 | 39.55081 | 2.72833 | 38 ft | 0 kts | 181° |
| 2026-05-07 13:38 | 39.55078 | 2.72833 | 38 ft | 0 kts | 181° |